Time;durP1;ratioP1;P1;durP2;ratioP2;P2;SDS_P1;SDS_P2;PMS_P1;PMS_P2;Temp;Humidity;BMP_temperature;BMP_pressure;BME280_temperature;BME280_humidity;BME280_pressure;Samples;Min_cycle;Max_cycle;Signal;HPM_P1;HPM_P2
2023/07/19 00:01:36;;;;;;;1.17;0.95;;;20.00;97.90;;;;;;5046127;28;20032;-41
2023/07/19 00:04:04;;;;;;;1.70;1.00;;;20.00;98.00;;;;;;5044810;28;20060;-41
2023/07/19 00:06:30;;;;;;;1.65;1.20;;;20.00;98.00;;;;;;5046226;28;20646;-41
2023/07/19 00:08:55;;;;;;;1.77;1.15;;;20.00;98.10;;;;;;5045598;28;20497;-41
2023/07/19 00:11:25;;;;;;;1.52;0.95;;;20.10;98.10;;;;;;5044730;28;20025;-41
2023/07/19 00:13:53;;;;;;;1.33;1.00;;;20.10;98.20;;;;;;5045841;28;20068;-41
2023/07/19 00:16:19;;;;;;;1.98;1.10;;;20.00;98.30;;;;;;5034610;28;20059;-41
2023/07/19 00:18:45;;;;;;;1.48;1.00;;;20.00;98.40;;;;;;5044977;28;20049;-41
2023/07/19 00:21:10;;;;;;;2.85;0.90;;;20.00;98.50;;;;;;5045318;28;20824;-41
2023/07/19 00:23:36;;;;;;;1.55;1.00;;;20.00;98.60;;;;;;5045802;28;20116;-41
2023/07/19 00:26:02;;;;;;;2.17;0.90;;;20.00;98.70;;;;;;5044495;28;20739;-41
2023/07/19 00:28:28;;;;;;;1.63;1.00;;;20.00;98.80;;;;;;5045333;28;20368;-41
2023/07/19 00:31:03;;;;;;;3.53;1.17;;;19.90;98.90;;;;;;5044508;28;20461;-41
2023/07/19 00:33:29;;;;;;;2.08;0.90;;;19.90;99.00;;;;;;5045498;28;20144;-41
2023/07/19 00:35:55;;;;;;;3.58;1.67;;;19.90;99.00;;;;;;5045035;28;20120;-41
2023/07/19 00:38:22;;;;;;;3.30;1.20;;;19.90;99.10;;;;;;5045346;28;20021;-42
2023/07/19 00:40:51;;;;;;;3.38;0.90;;;19.90;99.20;;;;;;5045128;28;20021;-42
2023/07/19 00:43:17;;;;;;;1.40;1.00;;;19.80;99.30;;;;;;5045035;28;20495;-41
2023/07/19 00:46:03;;;;;;;1.42;0.90;;;19.80;99.40;;;;;;5044785;28;20025;-42
2023/07/19 00:48:28;;;;;;;2.03;1.10;;;19.70;99.60;;;;;;5044950;28;20051;-41
2023/07/19 00:50:55;;;;;;;1.33;1.13;;;19.70;99.70;;;;;;5044163;28;20132;-41
2023/07/19 00:53:26;;;;;;;1.80;0.95;;;19.70;99.80;;;;;;5043885;28;20088;-41
2023/07/19 00:55:52;;;;;;;1.70;1.08;;;19.60;99.90;;;;;;5044751;28;20472;-42
2023/07/19 00:58:23;;;;;;;2.22;1.02;;;19.60;99.90;;;;;;5044996;28;20029;-42
2023/07/19 01:00:51;;;;;;;1.73;1.00;;;19.50;99.90;;;;;;5044220;28;20500;-42
2023/07/19 01:03:17;;;;;;;2.55;1.15;;;19.50;99.90;;;;;;5045187;28;20029;-42
2023/07/19 01:05:43;;;;;;;1.42;1.00;;;19.40;99.90;;;;;;5044557;28;20028;-43
2023/07/19 01:08:09;;;;;;;1.23;1.13;;;19.30;99.90;;;;;;5044022;28;20094;-42
2023/07/19 01:10:35;;;;;;;1.92;1.20;;;19.20;99.90;;;;;;5045157;28;20029;-42
2023/07/19 01:13:11;;;;;;;1.80;1.20;;;19.20;99.90;;;;;;5044367;28;20082;-42
2023/07/19 01:15:40;;;;;;;2.10;1.20;;;19.10;99.90;;;;;;5044639;28;20029;-42
2023/07/19 01:18:06;;;;;;;3.47;1.25;;;19.10;99.90;;;;;;5044570;28;20029;-42
2023/07/19 01:20:32;;;;;;;2.75;1.40;;;19.00;99.90;;;;;;5044344;28;20021;-40
2023/07/19 01:22:58;;;;;;;3.63;1.52;;;19.00;99.90;;;;;;5044483;28;20055;-41
2023/07/19 01:25:24;;;;;;;1.30;1.20;;;19.00;99.90;;;;;;5044929;28;20119;-42
2023/07/19 01:27:50;;;;;;;3.85;1.30;;;19.00;99.90;;;;;;5043521;28;20384;-41
2023/07/19 01:30:16;;;;;;;3.00;1.30;;;19.00;99.90;;;;;;5044376;28;20025;-41
2023/07/19 01:32:44;;;;;;;1.95;1.60;;;19.00;99.90;;;;;;5044190;28;20025;-41
2023/07/19 01:35:13;;;;;;;2.97;1.63;;;18.90;99.90;;;;;;5043914;28;20064;-41
2023/07/19 01:37:42;;;;;;;2.28;1.13;;;18.90;99.90;;;;;;5044156;28;20814;-42
2023/07/19 01:40:10;;;;;;;2.13;1.63;;;18.90;99.90;;;;;;5044801;28;20251;-42
2023/07/19 01:42:36;;;;;;;2.28;1.20;;;18.90;99.90;;;;;;5043262;28;20028;-42
2023/07/19 01:45:01;;;;;;;1.48;1.17;;;18.90;99.90;;;;;;5044717;28;20396;-42
2023/07/19 01:47:27;;;;;;;1.98;1.27;;;18.80;99.90;;;;;;5045056;28;20441;-42
2023/07/19 01:49:53;;;;;;;1.27;1.10;;;18.80;99.90;;;;;;5043783;28;20028;-42
2023/07/19 01:52:19;;;;;;;1.35;1.10;;;18.80;99.90;;;;;;5043970;28;20025;-41
2023/07/19 01:54:45;;;;;;;2.50;1.33;;;18.80;99.90;;;;;;5044335;28;20140;-42
2023/07/19 01:57:11;;;;;;;7.40;1.33;;;18.80;99.90;;;;;;5043230;28;20769;-41
2023/07/19 01:59:37;;;;;;;2.55;1.30;;;18.70;99.90;;;;;;5044120;28;20033;-42
2023/07/19 02:02:06;;;;;;;1.80;1.20;;;18.70;99.90;;;;;;5044735;28;20036;-41
2023/07/19 02:04:31;;;;;;;2.50;1.20;;;18.70;99.90;;;;;;5043740;28;20408;-42
2023/07/19 02:06:57;;;;;;;1.77;1.17;;;18.70;99.90;;;;;;5045013;28;20021;-41
2023/07/19 02:09:22;;;;;;;2.03;1.30;;;18.70;99.90;;;;;;5043696;28;20412;-42
2023/07/19 02:11:48;;;;;;;2.25;1.10;;;18.60;99.90;;;;;;5044603;28;20036;-42
2023/07/19 02:14:18;;;;;;;3.78;1.13;;;18.60;99.90;;;;;;5045909;28;20041;-43
2023/07/19 02:16:44;;;;;;;1.42;1.30;;;18.60;99.90;;;;;;5047812;28;20017;-42
2023/07/19 02:19:09;;;;;;;1.92;1.35;;;18.50;99.90;;;;;;5047169;28;20346;-42
2023/07/19 02:21:38;;;;;;;1.17;1.02;;;18.50;99.90;;;;;;5047935;28;20028;-42
2023/07/19 02:24:04;;;;;;;1.52;1.05;;;18.50;99.90;;;;;;5046823;28;20025;-42
2023/07/19 02:26:30;;;;;;;2.05;1.15;;;18.40;99.90;;;;;;5048208;28;20069;-42
2023/07/19 02:28:55;;;;;;;1.52;1.20;;;18.50;99.90;;;;;;5048529;28;20025;-41
2023/07/19 02:31:21;;;;;;;1.45;1.10;;;18.50;99.90;;;;;;5047015;28;20052;-41
2023/07/19 02:33:49;;;;;;;2.35;1.23;;;18.50;99.90;;;;;;5047278;28;20048;-42
2023/07/19 02:36:15;;;;;;;1.95;1.17;;;18.50;99.90;;;;;;5047714;28;20059;-42
2023/07/19 02:38:41;;;;;;;1.23;0.85;;;18.60;99.90;;;;;;5046575;28;20056;-42
2023/07/19 02:41:07;;;;;;;1.95;1.20;;;18.50;99.90;;;;;;5036516;28;20106;-41
2023/07/19 02:43:33;;;;;;;2.95;1.20;;;18.50;99.90;;;;;;5047298;28;20028;-42
2023/07/19 02:45:58;;;;;;;2.25;1.15;;;18.50;99.90;;;;;;5046491;28;20033;-43
2023/07/19 02:48:24;;;;;;;1.50;1.20;;;18.50;99.90;;;;;;5047570;28;20029;-42
2023/07/19 02:50:50;;;;;;;3.40;1.65;;;18.50;99.90;;;;;;5047288;28;20789;-43
2023/07/19 02:53:18;;;;;;;1.33;1.15;;;18.50;99.90;;;;;;5046575;28;20469;-42
2023/07/19 02:55:45;;;;;;;3.20;1.20;;;18.40;99.90;;;;;;5046338;28;20025;-42
2023/07/19 02:58:11;;;;;;;3.47;1.60;;;18.40;99.90;;;;;;5047106;28;20468;-43
2023/07/19 03:00:43;;;;;;;2.10;1.30;;;18.40;99.90;;;;;;5046221;28;20029;-42
2023/07/19 03:03:09;;;;;;;;;;;18.40;99.90;;;;;;5027531;28;20035;-42
2023/07/19 03:05:39;;;;;;;1.20;1.10;;;18.40;99.90;;;;;;5040592;28;19919;-42
2023/07/19 03:08:06;;;;;;;2.10;1.40;;;18.30;99.90;;;;;;5047064;28;20063;-40
2023/07/19 03:10:35;;;;;;;2.08;1.40;;;18.30;99.90;;;;;;5046899;28;20032;-40
2023/07/19 03:13:00;;;;;;;2.17;1.70;;;18.30;99.90;;;;;;5045863;28;20041;-41
2023/07/19 03:15:32;;;;;;;3.22;1.92;;;18.30;99.90;;;;;;5046976;28;20393;-41
2023/07/19 03:18:02;;;;;;;1.45;1.33;;;18.20;99.90;;;;;;5046764;28;20112;-42
2023/07/19 03:20:28;;;;;;;1.40;1.27;;;18.10;99.90;;;;;;5046059;28;20033;-41
2023/07/19 03:22:55;;;;;;;2.22;1.42;;;18.20;99.90;;;;;;5046678;28;20040;-41
2023/07/19 03:25:21;;;;;;;2.08;1.30;;;18.20;99.90;;;;;;5046355;28;20017;-41
2023/07/19 03:27:46;;;;;;;2.00;1.20;;;18.10;99.90;;;;;;5045436;28;20627;-41
2023/07/19 03:30:13;;;;;;;3.40;2.03;;;18.10;99.90;;;;;;5046633;28;20017;-42
2023/07/19 03:32:39;;;;;;;3.20;1.40;;;18.10;99.90;;;;;;5045987;28;20032;-42
2023/07/19 03:35:05;;;;;;;2.25;1.38;;;18.10;99.90;;;;;;5045305;28;20021;-42
2023/07/19 03:37:31;;;;;;;1.75;1.38;;;18.10;99.90;;;;;;5046284;28;20032;-42
2023/07/19 03:39:57;;;;;;;3.05;1.40;;;18.10;99.90;;;;;;5046825;28;20029;-42
2023/07/19 03:42:22;;;;;;;2.80;1.40;;;18.10;99.90;;;;;;5045592;28;20017;-42
2023/07/19 03:44:48;;;;;;;2.95;1.70;;;18.10;99.90;;;;;;5046613;28;20037;-42
2023/07/19 03:47:13;;;;;;;2.83;1.30;;;18.20;99.90;;;;;;5045746;28;20021;-41
2023/07/19 03:49:39;;;;;;;2.20;1.40;;;18.10;99.90;;;;;;5045637;28;20082;-42
2023/07/19 03:52:05;;;;;;;2.13;1.35;;;18.10;99.90;;;;;;5046030;28;20523;-42
2023/07/19 03:54:33;;;;;;;2.17;1.35;;;18.10;99.90;;;;;;5046203;28;20037;-42
2023/07/19 03:56:59;;;;;;;1.83;1.40;;;18.10;99.90;;;;;;5044777;28;20104;-42
2023/07/19 03:59:25;;;;;;;2.15;1.35;;;18.10;99.90;;;;;;5046098;28;20119;-41
2023/07/19 04:01:55;;;;;;;1.95;1.60;;;18.10;99.90;;;;;;5045401;28;20017;-41
2023/07/19 04:04:21;;;;;;;1.50;1.40;;;18.10;99.90;;;;;;5046299;28;20102;-41
2023/07/19 04:06:47;;;;;;;1.90;1.80;;;18.10;99.90;;;;;;5045958;28;20053;-41
2023/07/19 04:09:12;;;;;;;2.88;1.42;;;18.10;99.90;;;;;;5044494;28;20905;-41
2023/07/19 04:11:38;;;;;;;2.42;1.48;;;18.20;99.90;;;;;;5045701;28;20032;-41
2023/07/19 04:14:03;;;;;;;2.75;1.70;;;18.30;99.90;;;;;;5045521;28;20500;-41
2023/07/19 04:16:29;;;;;;;2.35;1.58;;;18.40;99.90;;;;;;5045327;28;20048;-46
2023/07/19 04:18:54;;;;;;;1.80;1.50;;;18.40;99.90;;;;;;5045486;28;20020;-41
2023/07/19 04:21:20;;;;;;;3.13;1.80;;;18.50;99.90;;;;;;5045292;28;20021;-42
2023/07/19 04:23:46;;;;;;;2.72;1.50;;;18.50;99.90;;;;;;5044562;28;20017;-41
2023/07/19 04:26:12;;;;;;;4.72;1.90;;;18.50;99.90;;;;;;5045261;28;20384;-41
2023/07/19 04:28:37;;;;;;;4.60;1.67;;;18.50;99.90;;;;;;5045161;28;20258;-41
2023/07/19 04:31:03;;;;;;;2.53;1.50;;;18.50;99.90;;;;;;5044676;28;20091;-41
2023/07/19 04:33:30;;;;;;;1.98;1.70;;;18.50;99.90;;;;;;5044983;28;20041;-42
2023/07/19 04:35:56;;;;;;;3.00;1.58;;;18.50;99.90;;;;;;5045124;28;20060;-41
2023/07/19 04:38:21;;;;;;;2.15;1.73;;;18.50;99.90;;;;;;5043897;28;20063;-41
2023/07/19 04:40:50;;;;;;;3.40;1.55;;;18.50;99.90;;;;;;5044638;28;20076;-41
2023/07/19 04:43:15;;;;;;;2.85;1.38;;;18.50;99.90;;;;;;5044940;28;20021;-40
2023/07/19 04:45:44;;;;;;;3.17;1.67;;;18.60;99.90;;;;;;5044717;28;20484;-42
2023/07/19 04:48:10;;;;;;;1.92;1.60;;;18.60;99.90;;;;;;5045113;28;20059;-42
2023/07/19 04:50:36;;;;;;;2.72;1.95;;;18.60;99.90;;;;;;5045052;28;20618;-42
2023/07/19 04:53:02;;;;;;;2.72;1.70;;;18.70;99.90;;;;;;5043977;28;20040;-41
2023/07/19 04:55:27;;;;;;;1.63;1.50;;;18.70;99.90;;;;;;5045785;28;20047;-42
2023/07/19 04:57:53;;;;;;;2.95;1.80;;;18.70;99.90;;;;;;5044536;28;20427;-42
2023/07/19 05:00:28;;;;;;;1.95;1.63;;;18.80;99.90;;;;;;5044359;28;20028;-41
2023/07/19 05:02:53;;;;;;;2.05;1.70;;;18.80;99.90;;;;;;5045370;28;20068;-41
2023/07/19 05:05:19;;;;;;;2.38;1.80;;;18.80;99.90;;;;;;5044459;28;20029;-41
2023/07/19 05:07:44;;;;;;;4.80;1.70;;;18.80;99.90;;;;;;5045030;28;20136;-41
2023/07/19 05:10:10;;;;;;;2.25;1.63;;;18.80;99.90;;;;;;5045186;28;20041;-41
2023/07/19 05:12:36;;;;;;;2.17;1.60;;;18.80;99.90;;;;;;5044603;28;20036;-41
2023/07/19 05:15:01;;;;;;;2.88;1.73;;;18.80;99.90;;;;;;5044963;28;20029;-41
2023/07/19 05:17:27;;;;;;;3.25;2.00;;;18.80;99.90;;;;;;5045738;28;20021;-41
2023/07/19 05:19:52;;;;;;;2.28;1.73;;;18.80;99.90;;;;;;5043752;28;20123;-42
2023/07/19 05:22:18;;;;;;;2.80;1.60;;;18.80;99.90;;;;;;5044852;28;20087;-42
2023/07/19 05:24:44;;;;;;;2.38;1.70;;;18.80;99.90;;;;;;5044375;28;20412;-42
2023/07/19 05:27:15;;;;;;;2.78;1.95;;;18.80;99.90;;;;;;5044120;28;20017;-41
2023/07/19 05:29:43;;;;;;;2.90;1.92;;;18.90;99.90;;;;;;5044770;28;20071;-43
2023/07/19 05:32:09;;;;;;;2.55;1.80;;;18.90;99.90;;;;;;5044491;28;20025;-43
2023/07/19 05:34:35;;;;;;;2.20;1.95;;;18.90;99.90;;;;;;5042951;28;20040;-43
2023/07/19 05:37:03;;;;;;;2.88;1.70;;;19.00;99.90;;;;;;5044288;28;20032;-42
2023/07/19 05:39:29;;;;;;;1.90;1.70;;;19.00;99.90;;;;;;5044864;28;20035;-42
2023/07/19 05:41:54;;;;;;;2.97;1.90;;;19.00;99.90;;;;;;5043369;28;20029;-42
2023/07/19 05:44:20;;;;;;;2.38;1.80;;;19.10;99.90;;;;;;5044494;28;20025;-42
2023/07/19 05:46:45;;;;;;;2.35;1.73;;;19.20;99.90;;;;;;5043936;28;20408;-42
2023/07/19 05:49:11;;;;;;;3.33;2.15;;;19.20;99.90;;;;;;5047081;28;20071;-42
2023/07/19 05:51:37;;;;;;;3.92;1.85;;;19.30;99.90;;;;;;5047245;28;20067;-42
2023/07/19 05:54:05;;;;;;;2.55;1.98;;;19.40;99.90;;;;;;5048549;28;20564;-42
2023/07/19 05:56:31;;;;;;;3.33;2.08;;;19.40;99.90;;;;;;5048039;28;20408;-42
2023/07/19 05:58:57;;;;;;;3.25;2.05;;;19.40;99.90;;;;;;5048172;28;20556;-41
2023/07/19 06:01:22;;;;;;;3.10;2.22;;;19.40;99.90;;;;;;5047869;28;20052;-42
2023/07/19 06:03:48;;;;;;;3.08;2.20;;;19.50;99.90;;;;;;5047171;28;20175;-41
2023/07/19 06:06:15;;;;;;;4.18;2.20;;;19.50;99.90;;;;;;5048226;28;20010;-42
2023/07/19 06:08:40;;;;;;;2.40;1.95;;;19.60;99.90;;;;;;5047234;28;20118;-42
2023/07/19 06:11:06;;;;;;;4.35;2.20;;;19.60;99.90;;;;;;5047812;28;20067;-42
2023/07/19 06:13:32;;;;;;;3.60;2.00;;;19.60;99.90;;;;;;5047749;28;20036;-42
2023/07/19 06:15:58;;;;;;;3.35;2.20;;;19.60;99.90;;;;;;5047340;28;20021;-42
2023/07/19 06:18:23;;;;;;;3.85;2.03;;;19.60;99.90;;;;;;5048590;28;20078;-41
2023/07/19 06:20:49;;;;;;;2.42;1.83;;;19.50;99.90;;;;;;5047478;28;20777;-42
2023/07/19 06:23:15;;;;;;;6.05;2.05;;;19.50;99.90;;;;;;5047131;28;20021;-42
2023/07/19 06:25:41;;;;;;;3.95;2.10;;;19.60;99.90;;;;;;5047623;28;20029;-42
2023/07/19 06:28:07;;;;;;;3.55;1.75;;;19.60;99.90;;;;;;5047596;28;20029;-42
2023/07/19 06:30:32;;;;;;;3.78;1.98;;;19.70;99.90;;;;;;5046982;28;20036;-42
2023/07/19 06:33:02;;;;;;;2.67;1.90;;;19.80;99.90;;;;;;5047269;28;20073;-42
2023/07/19 06:35:27;;;;;;;2.85;1.90;;;19.80;99.90;;;;;;5047697;28;20454;-41
2023/07/19 06:37:53;;;;;;;3.00;1.85;;;19.90;99.90;;;;;;5046761;28;20523;-41
2023/07/19 06:40:18;;;;;;;3.17;1.73;;;19.90;99.90;;;;;;5047009;28;20090;-41
2023/07/19 06:42:44;;;;;;;2.50;2.00;;;19.90;99.90;;;;;;5047162;28;20132;-42
2023/07/19 06:45:10;;;;;;;4.25;1.55;;;19.80;99.90;;;;;;5047223;28;20021;-41
2023/07/19 06:47:36;;;;;;;4.25;1.88;;;19.80;99.90;;;;;;5046798;28;20257;-40
2023/07/19 06:50:02;;;;;;;2.17;1.50;;;19.80;99.90;;;;;;5047281;28;20830;-43
2023/07/19 06:52:28;;;;;;;3.65;1.50;;;19.90;99.90;;;;;;5047024;28;20033;-41
2023/07/19 06:54:54;;;;;;;2.60;1.60;;;20.10;99.90;;;;;;5046885;28;20384;-41
2023/07/19 06:57:21;;;;;;;3.03;1.40;;;20.20;99.90;;;;;;5047001;28;20020;-41
2023/07/19 06:59:49;;;;;;;3.70;1.40;;;20.30;99.90;;;;;;5045675;28;20032;-42
2023/07/19 07:02:16;;;;;;;2.10;1.45;;;20.40;99.90;;;;;;5046636;28;20035;-42
2023/07/19 07:04:42;;;;;;;1.40;1.17;;;20.50;99.90;;;;;;5046905;28;20784;-42
2023/07/19 07:07:07;;;;;;;2.35;1.35;;;20.70;99.90;;;;;;5046539;28;20021;-42
2023/07/19 07:09:33;;;;;;;2.13;1.20;;;20.80;99.90;;;;;;5046927;28;20025;-42
2023/07/19 07:11:58;;;;;;;3.97;1.55;;;20.90;99.90;;;;;;5046155;28;20029;-42
2023/07/19 07:14:24;;;;;;;2.38;1.50;;;21.00;99.90;;;;;;5047470;28;20369;-42
2023/07/19 07:16:50;;;;;;;1.92;1.45;;;21.00;99.90;;;;;;5047267;28;20468;-41
2023/07/19 07:19:15;;;;;;;2.72;1.60;;;21.10;99.90;;;;;;5046451;28;20024;-42
2023/07/19 07:21:41;;;;;;;3.13;1.80;;;21.10;99.90;;;;;;5047095;28;20032;-42
2023/07/19 07:24:07;;;;;;;3.28;1.75;;;21.10;99.90;;;;;;5046310;28;20060;-42
2023/07/19 07:26:33;;;;;;;2.78;1.65;;;21.10;99.90;;;;;;5046509;28;20377;-42
2023/07/19 07:28:58;;;;;;;2.45;1.60;;;21.20;99.90;;;;;;5046722;28;20025;-42
2023/07/19 07:31:24;;;;;;;3.50;1.70;;;21.20;99.90;;;;;;5046561;28;20025;-42
2023/07/19 07:33:49;;;;;;;2.13;1.50;;;21.20;99.90;;;;;;5045565;28;20823;-42
2023/07/19 07:36:15;;;;;;;3.88;1.90;;;21.20;99.90;;;;;;5045831;28;20048;-42
2023/07/19 07:38:41;;;;;;;2.72;1.63;;;21.10;99.90;;;;;;5046296;28;20025;-41
2023/07/19 07:41:06;;;;;;;3.88;1.98;;;21.00;99.90;;;;;;5046000;28;20025;-41
2023/07/19 07:43:35;;;;;;;2.75;1.90;;;21.10;99.90;;;;;;5046078;28;20017;-41
2023/07/19 07:46:00;;;;;;;2.65;1.90;;;21.10;99.90;;;;;;5046034;28;20025;-42
2023/07/19 07:48:26;;;;;;;2.30;1.92;;;21.10;99.90;;;;;;5046462;28;20028;-41
2023/07/19 07:50:54;;;;;;;3.80;1.92;;;21.00;99.90;;;;;;5046116;28;20100;-41
2023/07/19 07:53:21;;;;;;;3.28;1.90;;;20.90;99.90;;;;;;5046112;28;20048;-41
2023/07/19 07:56:07;;;;;;;2.92;2.10;;;20.90;99.90;;;;;;5045575;28;20017;-41
2023/07/19 07:58:33;;;;;;;2.42;1.85;;;20.80;99.90;;;;;;5045588;28;20060;-41
2023/07/19 08:00:59;;;;;;;6.90;2.00;;;20.90;99.90;;;;;;5045202;28;20037;-41
2023/07/19 08:03:25;;;;;;;4.03;2.20;;;20.80;99.90;;;;;;5046852;28;20079;-42
2023/07/19 08:05:51;;;;;;;3.95;1.85;;;20.80;99.90;;;;;;5045691;28;20028;-42
2023/07/19 08:08:17;;;;;;;3.70;1.70;;;20.80;99.90;;;;;;5045403;28;20136;-42
2023/07/19 08:10:42;;;;;;;2.83;1.90;;;20.80;99.90;;;;;;5045163;28;20040;-42
2023/07/19 08:13:08;;;;;;;2.85;1.77;;;20.80;99.90;;;;;;5045724;28;20040;-42
2023/07/19 08:15:35;;;;;;;3.05;1.95;;;20.80;99.90;;;;;;5044795;28;20136;-42
2023/07/19 08:18:00;;;;;;;5.03;2.25;;;20.90;99.90;;;;;;5045821;28;20472;-42
2023/07/19 08:20:29;;;;;;;3.72;2.10;;;20.90;99.90;;;;;;5045875;28;20028;-42
2023/07/19 08:22:55;;;;;;;3.55;1.70;;;20.90;99.90;;;;;;5044899;28;20096;-41
2023/07/19 08:25:21;;;;;;;2.63;1.90;;;21.00;99.90;;;;;;5045021;28;20132;-42
2023/07/19 08:27:47;;;;;;;3.88;1.92;;;21.10;99.90;;;;;;5045859;28;20376;-42
2023/07/19 08:30:15;;;;;;;2.60;1.80;;;21.10;99.90;;;;;;5044495;28;20078;-41
2023/07/19 08:32:45;;;;;;;3.38;1.90;;;21.20;99.90;;;;;;5044871;28;20372;-42
2023/07/19 08:35:12;;;;;;;2.88;1.92;;;21.30;99.90;;;;;;5045642;28;20107;-42
2023/07/19 08:37:40;;;;;;;3.03;1.88;;;21.40;99.90;;;;;;5044863;28;20384;-41
2023/07/19 08:40:07;;;;;;;2.45;1.67;;;21.60;99.90;;;;;;5045068;28;20039;-41
2023/07/19 08:42:33;;;;;;;4.13;2.42;;;21.70;99.90;;;;;;5044859;28;20025;-41
2023/07/19 08:44:59;;;;;;;3.65;2.30;;;21.90;99.90;;;;;;5044557;28;20583;-42
2023/07/19 08:47:25;;;;;;;3.95;1.85;;;21.90;99.90;;;;;;5044832;28;20021;-41
2023/07/19 08:49:51;;;;;;;3.33;2.10;;;22.00;99.90;;;;;;5044787;28;20056;-41
2023/07/19 08:52:17;;;;;;;4.40;2.10;;;22.10;99.90;;;;;;5044463;28;20407;-41
2023/07/19 08:54:43;;;;;;;5.43;2.05;;;22.20;99.90;;;;;;5044771;28;20124;-42
2023/07/19 08:57:11;;;;;;;3.75;1.70;;;22.30;99.90;;;;;;5044771;28;20025;-42
2023/07/19 08:59:37;;;;;;;3.60;1.98;;;22.30;99.90;;;;;;5044873;28;20056;-41
2023/07/19 09:02:03;;;;;;;3.55;1.88;;;22.30;99.90;;;;;;5044800;28;20465;-41
2023/07/19 09:04:29;;;;;;;3.08;1.80;;;22.30;99.90;;;;;;5045015;28;20047;-42
2023/07/19 09:06:54;;;;;;;2.20;1.58;;;22.30;99.90;;;;;;5044997;28;20021;-41
2023/07/19 09:09:20;;;;;;;2.95;1.60;;;22.30;99.90;;;;;;5044820;28;20068;-41
2023/07/19 09:11:47;;;;;;;2.00;1.65;;;22.20;99.90;;;;;;5044918;28;20041;-41
2023/07/19 09:14:12;;;;;;;2.58;1.75;;;22.30;99.90;;;;;;5033995;28;20488;-41
2023/07/19 09:16:40;;;;;;;3.55;1.75;;;22.40;99.90;;;;;;5045128;28;20539;-41
2023/07/19 09:19:10;;;;;;;3.72;1.50;;;22.50;99.90;;;;;;5044407;28;20024;-41
2023/07/19 09:21:43;;;;;;;2.95;1.50;;;22.60;99.90;;;;;;5045259;28;20484;-42
2023/07/19 09:24:10;;;;;;;3.65;1.60;;;22.80;99.90;;;;;;5045166;28;20028;-42
2023/07/19 09:26:49;;;;;;;2.85;1.60;;;23.00;99.90;;;;;;5047816;28;20025;-43
2023/07/19 09:29:15;;;;;;;3.38;2.00;;;23.20;99.90;;;;;;5048979;28;20036;-43
2023/07/19 09:31:55;;;;;;;2.80;1.50;;;23.20;99.80;;;;;;5048935;28;20021;-41
2023/07/19 09:34:37;;;;;;;3.05;1.60;;;23.10;99.80;;;;;;5047394;28;20040;-41
2023/07/19 09:37:03;;;;;;;;;;;23.10;99.90;;;;;;5048998;28;20810;-42
2023/07/19 09:39:30;;;;;;;3.75;1.88;;;23.00;99.50;;;;;;5048026;28;20383;-41
2023/07/19 09:42:00;;;;;;;4.53;1.73;;;22.90;98.80;;;;;;5049224;28;20056;-41
2023/07/19 09:44:27;;;;;;;2.88;1.73;;;22.60;99.10;;;;;;5049189;28;20032;-41
2023/07/19 09:46:54;;;;;;;3.75;1.80;;;22.50;99.30;;;;;;5048450;28;20033;-41
2023/07/19 09:49:20;;;;;;;2.53;1.80;;;22.40;98.80;;;;;;5048553;28;20085;-42
2023/07/19 09:51:47;;;;;;;1.95;1.75;;;22.30;98.70;;;;;;5028907;28;20025;-42
2023/07/19 09:54:14;;;;;;;2.78;1.92;;;22.20;98.90;;;;;;5042107;28;20107;-42
2023/07/19 09:56:41;;;;;;;3.05;1.90;;;22.20;98.60;;;;;;5048554;28;20025;-41
2023/07/19 09:59:18;;;;;;;1.65;1.55;;;22.20;98.40;;;;;;5048362;28;20345;-41
2023/07/19 10:01:44;;;;;;;3.10;1.75;;;22.20;98.50;;;;;;5047441;28;20136;-42
2023/07/19 10:04:33;;;;;;;2.50;1.60;;;22.30;98.70;;;;;;5048169;28;20438;-42
2023/07/19 10:07:21;;;;;;;3.15;1.60;;;22.50;98.70;;;;;;5048520;28;20036;-41
2023/07/19 10:09:51;;;;;;;3.00;1.85;;;22.70;98.40;;;;;;5047764;28;20175;-42
2023/07/19 10:12:16;;;;;;;2.65;1.60;;;22.90;98.30;;;;;;5048492;28;20025;-42
2023/07/19 10:14:56;;;;;;;2.88;1.60;;;23.10;98.20;;;;;;5047003;28;20608;-41
2023/07/19 10:17:22;;;;;;;2.38;1.98;;;23.30;98.10;;;;;;5048277;28;20064;-41
2023/07/19 10:20:03;;;;;;;1.75;1.60;;;23.40;97.80;;;;;;5048127;28;20490;-41
2023/07/19 10:22:57;;;;;;;2.33;1.50;;;23.40;97.70;;;;;;5047339;28;20128;-41
2023/07/19 10:25:35;;;;;;;2.63;1.52;;;23.40;97.80;;;;;;5048068;28;20198;-41
2023/07/19 10:28:07;;;;;;;3.13;1.50;;;23.40;97.80;;;;;;5028314;28;20125;-41
2023/07/19 10:30:51;;;;;;;2.15;1.77;;;23.40;97.80;;;;;;5042735;28;20037;-41
2023/07/19 10:33:21;;;;;;;3.10;1.75;;;23.20;97.90;;;;;;5028374;28;20037;-41
2023/07/19 10:35:49;;;;;;;1.80;1.70;;;23.00;98.30;;;;;;5042588;28;20063;-41
2023/07/19 10:38:20;;;;;;;4.25;2.17;;;22.80;98.50;;;;;;5047754;28;20091;-42
2023/07/19 10:40:57;;;;;;;1.85;1.67;;;22.50;98.80;;;;;;5048104;28;20108;-43
2023/07/19 10:43:25;;;;;;;2.33;1.80;;;22.40;99.20;;;;;;5047653;28;20029;-42
2023/07/19 10:45:55;;;;;;;4.97;2.00;;;22.20;99.70;;;;;;5047744;28;20486;-42
2023/07/19 10:48:25;;;;;;;3.17;2.08;;;22.10;99.80;;;;;;5047481;28;20039;-42
2023/07/19 10:50:55;;;;;;;3.72;2.20;;;22.00;99.90;;;;;;5046779;28;20021;-42
2023/07/19 10:53:20;;;;;;;2.65;2.00;;;21.90;99.90;;;;;;5047751;28;20097;-42
2023/07/19 10:55:46;;;;;;;5.30;3.00;;;21.80;99.90;;;;;;5047414;28;20484;-42
2023/07/19 10:58:14;;;;;;;3.63;2.30;;;21.90;99.90;;;;;;5046802;28;20044;-42
2023/07/19 11:00:43;;;;;;;3.65;2.40;;;21.90;99.90;;;;;;5047279;28;20051;-42
2023/07/19 11:03:15;;;;;;;2.90;1.77;;;21.90;99.90;;;;;;5047136;28;20028;-41
2023/07/19 11:05:46;;;;;;;3.50;1.98;;;22.00;99.90;;;;;;5046857;28;20025;-41
2023/07/19 11:08:19;;;;;;;3.10;2.13;;;22.20;99.90;;;;;;5046772;28;20148;-42
2023/07/19 11:10:45;;;;;;;3.83;2.35;;;22.30;99.90;;;;;;5047259;28;20345;-41
2023/07/19 11:13:13;;;;;;;5.40;2.70;;;22.30;99.90;;;;;;5047202;28;20025;-41
2023/07/19 11:15:47;;;;;;;4.93;2.10;;;22.30;99.30;;;;;;5046785;28;20518;-41
2023/07/19 11:18:29;;;;;;;4.82;1.85;;;22.20;99.60;;;;;;5046782;28;20013;-41
2023/07/19 11:20:58;;;;;;;2.35;1.40;;;22.30;99.70;;;;;;5047635;28;20040;-41
2023/07/19 11:23:28;;;;;;;2.67;1.45;;;22.30;99.60;;;;;;5047099;28;20481;-41
2023/07/19 11:26:08;;;;;;;3.42;1.90;;;22.50;99.60;;;;;;5045988;28;20028;-41
2023/07/19 11:28:46;;;;;;;2.30;1.70;;;22.60;99.50;;;;;;5046276;28;20028;-42
2023/07/19 11:31:35;;;;;;;3.47;1.75;;;22.80;99.30;;;;;;5046875;28;20537;-42
2023/07/19 11:34:09;;;;;;;5.15;2.10;;;22.90;98.80;;;;;;5035878;28;20083;-42
2023/07/19 11:36:42;;;;;;;4.35;2.20;;;23.00;98.80;;;;;;5046403;28;20021;-42
2023/07/19 11:39:37;;;;;;;5.10;2.28;;;22.90;98.90;;;;;;5035570;28;20032;-42
2023/07/19 11:42:03;;;;;;;4.20;2.72;;;22.80;99.10;;;;;;5037426;28;20035;-41
2023/07/19 11:44:28;;;;;;;4.25;2.30;;;22.70;99.70;;;;;;5047118;28;20116;-41
2023/07/19 11:46:55;;;;;;;4.03;2.20;;;22.60;99.90;;;;;;5044698;28;20381;-41
2023/07/19 11:49:21;;;;;;;3.22;2.28;;;22.40;99.90;;;;;;5046160;28;20049;-41
2023/07/19 11:51:47;;;;;;;4.65;2.30;;;22.40;99.90;;;;;;5045735;28;20806;-41
2023/07/19 11:54:14;;;;;;;2.85;1.73;;;22.40;99.90;;;;;;5045317;28;20044;-41
2023/07/19 11:56:39;;;;;;;3.65;2.00;;;22.50;99.90;;;;;;5045859;28;20151;-41
2023/07/19 11:59:05;;;;;;;3.72;1.90;;;22.60;99.90;;;;;;5045830;28;20100;-41
2023/07/19 12:01:31;;;;;;;3.15;1.60;;;22.70;99.90;;;;;;5045334;28;20029;-41
2023/07/19 12:04:01;;;;;;;3.75;1.73;;;22.70;99.90;;;;;;5045812;28;20381;-43
2023/07/19 12:06:27;;;;;;;3.60;2.10;;;22.70;99.90;;;;;;5046814;28;20021;-42
2023/07/19 12:08:53;;;;;;;3.28;1.95;;;22.70;99.90;;;;;;5044899;28;20052;-42
2023/07/19 12:11:18;;;;;;;4.88;3.40;;;22.60;99.90;;;;;;5046052;28;20029;-43
2023/07/19 12:13:44;;;;;;;6.60;2.80;;;22.00;99.90;;;;;;5045705;28;20044;-42
2023/07/19 12:16:09;;;;;;;3.78;2.38;;;20.90;99.90;;;;;;5044729;28;20119;-42
2023/07/19 12:18:35;;;;;;;4.75;2.45;;;20.10;99.90;;;;;;5045279;28;20107;-42
2023/07/19 12:21:06;;;;;;;3.42;2.53;;;19.70;99.90;;;;;;5045644;28;20060;-41
2023/07/19 12:23:32;;;;;;;4.57;2.50;;;19.40;99.90;;;;;;5045116;28;20021;-41
2023/07/19 12:25:58;;;;;;;4.43;2.78;;;19.20;99.90;;;;;;5046466;28;20025;-43
2023/07/19 12:28:23;;;;;;;4.78;2.58;;;19.10;99.90;;;;;;5045050;28;20047;-41
2023/07/19 12:30:52;;;;;;;4.90;3.08;;;19.10;99.90;;;;;;5046232;28;20056;-41
2023/07/19 12:33:18;;;;;;;5.45;3.22;;;19.10;99.90;;;;;;5045356;28;20178;-41
2023/07/19 12:35:47;;;;;;;5.15;2.50;;;19.10;99.90;;;;;;5044588;28;20033;-41
2023/07/19 12:38:15;;;;;;;2.97;2.17;;;19.20;99.90;;;;;;5045514;28;20480;-41
2023/07/19 12:40:45;;;;;;;5.40;2.67;;;19.50;99.90;;;;;;5041899;28;20032;-41
2023/07/19 12:43:16;;;;;;;3.42;2.50;;;19.70;99.90;;;;;;5044585;28;20107;-41
2023/07/19 12:45:43;;;;;;;3.97;2.20;;;19.90;99.90;;;;;;5045522;28;20021;-41
2023/07/19 12:48:09;;;;;;;4.57;2.20;;;20.00;99.90;;;;;;5045781;28;20124;-41
2023/07/19 12:50:37;;;;;;;4.70;1.70;;;20.20;99.90;;;;;;5044750;28;20104;-41